createdAt,value
2018-12-19T00:04:10.358Z,83.55
2018-12-19T00:09:14.650Z,83.52
2018-12-19T00:14:18.906Z,82.99
2018-12-19T00:19:23.366Z,83.52
2018-12-19T00:24:27.847Z,83.54
2018-12-19T00:29:32.167Z,83.48
2018-12-19T00:34:36.706Z,83.77
2018-12-19T00:45:28.453Z,82.70
2018-12-19T00:50:32.940Z,82.92
2018-12-19T00:55:37.323Z,83.10
2018-12-19T01:00:41.683Z,83.09
2018-12-19T01:05:45.759Z,83.12
2018-12-19T01:10:50.038Z,83.42
2018-12-19T01:15:54.423Z,82.78
2018-12-19T01:20:58.720Z,82.63
2018-12-19T01:26:03.034Z,83.43
2018-12-19T01:31:07.314Z,83.13
2018-12-19T01:36:11.698Z,83.43
2018-12-19T01:41:15.988Z,82.96
2018-12-19T01:46:32.603Z,82.55
2018-12-19T01:51:36.998Z,82.52
2018-12-19T01:56:41.474Z,82.02
2018-12-19T02:01:55.707Z,81.83
2018-12-19T02:07:00.081Z,82.22
2018-12-19T02:12:04.401Z,81.40
2018-12-19T02:17:08.781Z,80.71
2018-12-19T02:22:13.000Z,80.83
2018-12-19T02:27:17.301Z,80.92
2018-12-19T02:32:21.673Z,81.11
2018-12-19T02:43:06.105Z,81.57
2018-12-19T02:48:10.666Z,81.54
2018-12-19T02:53:15.098Z,81.80
2018-12-19T02:58:19.421Z,81.67
2018-12-19T03:03:23.645Z,81.35
2018-12-19T03:08:27.861Z,81.44
2018-12-19T03:13:32.515Z,81.74
2018-12-19T03:18:36.665Z,81.63
2018-12-19T03:23:40.869Z,81.55
2018-12-19T03:28:45.135Z,81.61
2018-12-19T03:33:50.160Z,81.93
2018-12-19T03:38:54.478Z,82.23
2018-12-19T03:43:58.703Z,81.84
2018-12-19T03:49:03.059Z,82.08
2018-12-19T03:54:07.350Z,81.35
2018-12-19T03:59:11.456Z,81.68
2018-12-19T04:04:15.815Z,81.36
2018-12-19T04:09:20.132Z,81.37
2018-12-19T04:14:24.405Z,81.25
2018-12-19T04:19:28.778Z,81.31
2018-12-19T04:24:33.080Z,80.22
2018-12-19T04:29:37.792Z,79.37
2018-12-19T04:34:42.067Z,79.80
2018-12-19T04:39:46.216Z,80.22
2018-12-19T04:44:50.501Z,80.20
2018-12-19T04:49:54.766Z,80.32
2018-12-19T04:54:58.931Z,80.65
2018-12-19T05:05:21.246Z,80.25
2018-12-19T05:10:25.506Z,80.21
2018-12-19T05:15:29.863Z,80.16
2018-12-19T05:20:34.236Z,79.13
2018-12-19T05:25:38.441Z,79.06
2018-12-19T05:30:42.785Z,78.70
2018-12-19T05:35:47.018Z,78.83
2018-12-19T05:40:51.213Z,78.92
2018-12-19T05:45:55.466Z,78.78
2018-12-19T05:50:59.709Z,78.88
2018-12-19T05:56:04.031Z,78.61
2018-12-19T06:01:08.359Z,78.24
2018-12-19T06:06:12.701Z,78.04
2018-12-19T06:11:16.923Z,79.05
2018-12-19T06:16:21.396Z,79.19
2018-12-19T06:21:25.846Z,80.02
2018-12-19T06:26:30.151Z,79.64
2018-12-19T06:31:34.467Z,79.35
2018-12-19T06:36:38.786Z,78.78
2018-12-19T06:41:43.272Z,79.22
2018-12-19T06:46:47.567Z,78.98
2018-12-19T06:51:51.815Z,78.82
2018-12-19T06:56:56.261Z,78.16
2018-12-19T07:02:00.668Z,78.49
2018-12-19T07:07:05.121Z,79.47
2018-12-19T07:12:09.496Z,80.10
2018-12-19T07:17:13.886Z,79.62
2018-12-19T07:22:18.267Z,79.78
2018-12-19T07:27:22.541Z,80.13
2018-12-19T07:32:27.001Z,79.89
2018-12-19T07:37:31.318Z,80.14
2018-12-19T07:42:35.708Z,80.45
2018-12-19T07:47:40.069Z,80.44
2018-12-19T07:52:44.618Z,80.14
2018-12-19T07:57:48.909Z,80.45
2018-12-19T08:02:53.113Z,80.51
2018-12-19T08:07:57.397Z,80.83
2018-12-19T08:13:01.709Z,81.23
2018-12-19T08:18:06.008Z,81.60
2018-12-19T08:23:10.263Z,81.41
2018-12-19T08:28:14.513Z,82.13
2018-12-19T08:33:18.862Z,82.02
2018-12-19T08:38:23.064Z,81.90
2018-12-19T08:43:27.408Z,81.50
2018-12-19T08:48:31.728Z,79.89
2018-12-19T08:53:36.083Z,79.24
2018-12-19T08:58:40.243Z,78.30
2018-12-19T09:03:44.388Z,79.03
2018-12-19T09:08:48.663Z,78.16
2018-12-19T09:13:52.953Z,78.82
2018-12-19T09:18:57.203Z,79.21
2018-12-19T09:24:01.552Z,77.77
2018-12-19T09:29:05.832Z,74.83
2018-12-19T09:34:10.099Z,75.51
2018-12-19T09:39:14.443Z,75.85
2018-12-19T09:44:18.787Z,75.10
2018-12-19T09:49:23.028Z,75.22
2018-12-19T09:54:27.316Z,73.29
2018-12-19T09:59:31.537Z,74.08
2018-12-19T10:04:35.723Z,74.20
2018-12-19T10:09:39.997Z,73.92
2018-12-19T10:14:44.342Z,74.57
2018-12-19T10:25:32.897Z,74.54
2018-12-19T10:30:41.122Z,74.63
2018-12-19T10:35:45.430Z,73.78
2018-12-19T10:49:50.588Z,70.30
2018-12-19T10:54:55.615Z,70.66
2018-12-19T11:00:00.442Z,69.81
2018-12-19T11:05:05.452Z,70.87
2018-12-19T11:10:10.362Z,71.67
2018-12-19T11:15:15.842Z,70.95
2018-12-19T11:20:20.817Z,70.71
2018-12-19T11:25:25.652Z,70.47
2018-12-19T11:30:31.712Z,70.35
2018-12-19T11:35:36.540Z,70.54
2018-12-19T11:40:41.381Z,71.28
2018-12-19T11:45:46.117Z,72.01
2018-12-19T11:50:51.083Z,74.12
2018-12-19T11:55:55.962Z,74.51
2018-12-19T12:01:00.979Z,74.89
2018-12-19T12:06:05.834Z,75.30
2018-12-19T12:11:10.784Z,73.60
2018-12-19T12:16:15.747Z,74.26
2018-12-19T12:21:20.798Z,74.52
2018-12-19T12:26:25.630Z,73.06
2018-12-19T12:31:30.693Z,77.65
2018-12-19T12:36:35.638Z,79.63
2018-12-19T12:41:40.558Z,79.40
2018-12-19T12:46:45.271Z,77.76
2018-12-19T12:51:50.273Z,76.80
2018-12-19T12:56:55.179Z,77.28
2018-12-19T13:01:59.878Z,76.06
2018-12-19T13:07:04.627Z,75.39
2018-12-19T13:12:09.383Z,76.00
2018-12-19T13:17:14.337Z,77.33
2018-12-19T13:22:19.143Z,77.22
2018-12-19T13:27:24.100Z,77.80
2018-12-19T13:32:28.899Z,76.34
2018-12-19T13:37:33.809Z,75.43
2018-12-19T13:42:38.597Z,74.59
2018-12-19T13:47:43.372Z,75.15
2018-12-19T13:52:48.153Z,76.54
2018-12-19T13:57:52.878Z,77.80
2018-12-19T14:02:57.668Z,74.79
2018-12-19T14:08:02.334Z,74.39
2018-12-19T14:13:07.219Z,74.70
2018-12-19T14:18:11.973Z,75.84
2018-12-19T14:23:16.729Z,75.98
2018-12-19T14:28:21.588Z,76.42
2018-12-19T14:33:26.538Z,76.02
2018-12-19T14:38:32.423Z,74.57
2018-12-19T14:43:37.319Z,75.36
2018-12-19T14:48:42.078Z,76.62
2018-12-19T14:53:46.998Z,76.50
2018-12-19T14:58:52.373Z,76.88
2018-12-19T15:03:57.222Z,77.38
2018-12-19T15:09:02.124Z,77.50
2018-12-19T15:14:07.132Z,77.98
2018-12-19T15:19:11.958Z,78.07
2018-12-19T15:24:16.886Z,78.39
2018-12-19T15:29:21.827Z,78.37
2018-12-19T15:34:26.743Z,78.79
2018-12-19T15:39:32.701Z,78.59
2018-12-19T15:44:37.533Z,76.21
2018-12-19T15:55:20.807Z,77.87
2018-12-19T16:00:25.652Z,77.47
2018-12-19T16:05:30.562Z,77.46
2018-12-19T16:10:35.302Z,77.28
2018-12-19T16:15:40.247Z,78.34
2018-12-19T16:20:45.132Z,78.17
2018-12-19T16:25:50.182Z,77.69
2018-12-19T16:30:55.086Z,77.35
2018-12-19T16:35:59.927Z,77.38
2018-12-19T16:41:04.862Z,77.00
2018-12-19T16:46:09.702Z,76.41
2018-12-19T16:51:14.622Z,77.05
2018-12-19T16:56:19.566Z,77.69
2018-12-19T17:01:24.447Z,77.93
2018-12-19T17:06:29.282Z,79.19
2018-12-19T17:11:34.077Z,79.55
2018-12-19T17:16:39.057Z,80.04
2018-12-19T17:21:43.776Z,80.08
2018-12-19T17:26:48.402Z,80.26
2018-12-19T17:31:53.177Z,80.60
2018-12-19T17:36:57.868Z,80.67
2018-12-19T17:42:02.673Z,80.54
2018-12-19T17:47:07.624Z,80.29
2018-12-19T17:52:12.645Z,80.22
2018-12-19T17:57:17.505Z,80.65
2018-12-19T18:02:23.004Z,80.65
2018-12-19T18:07:28.144Z,80.89
2018-12-19T18:12:33.130Z,80.51
2018-12-19T18:17:38.021Z,80.75
2018-12-19T18:22:43.020Z,80.80
2018-12-19T18:27:47.837Z,78.66
2018-12-19T18:32:52.737Z,79.07
2018-12-19T18:37:57.517Z,79.28
2018-12-19T18:43:02.257Z,78.87
2018-12-19T18:48:07.200Z,79.09
2018-12-19T18:53:13.258Z,79.20
2018-12-19T18:58:18.484Z,79.33
2018-12-19T19:03:23.461Z,79.54
2018-12-19T19:08:28.388Z,80.39
2018-12-19T19:13:34.034Z,80.67
2018-12-19T19:18:38.926Z,80.36
2018-12-19T19:23:44.078Z,80.20
2018-12-19T19:28:48.938Z,80.23
2018-12-19T19:33:53.778Z,79.55
2018-12-19T19:38:58.800Z,79.72
2018-12-19T19:44:03.798Z,78.83
2018-12-19T19:49:08.711Z,76.41
2018-12-19T19:54:13.579Z,78.27
2018-12-19T19:59:18.619Z,80.23
2018-12-19T20:04:23.520Z,81.11
2018-12-19T20:09:28.179Z,81.15
2018-12-19T20:14:33.019Z,80.99
2018-12-19T20:19:37.980Z,80.37
2018-12-19T20:24:42.939Z,80.17
2018-12-19T20:29:47.981Z,80.22
2018-12-19T20:34:52.899Z,80.36
2018-12-19T20:39:58.671Z,80.30
2018-12-19T20:45:03.619Z,80.86
2018-12-19T20:50:09.343Z,80.58
2018-12-19T20:55:14.349Z,80.50
2018-12-19T21:00:19.573Z,81.02
2018-12-19T21:05:24.538Z,81.51
2018-12-19T21:10:29.521Z,82.02
2018-12-19T21:15:34.460Z,82.55
2018-12-19T21:20:39.418Z,82.21
2018-12-19T21:25:44.059Z,82.41
2018-12-19T21:30:48.792Z,82.18
2018-12-19T21:35:53.560Z,82.45
2018-12-19T21:40:58.480Z,82.75
2018-12-19T21:46:03.519Z,82.96
2018-12-19T21:51:08.658Z,83.52
2018-12-19T21:56:13.519Z,83.44
2018-12-19T22:01:18.549Z,83.54
2018-12-19T22:06:23.435Z,83.84
2018-12-19T22:11:28.479Z,84.02
2018-12-19T22:16:37.700Z,83.27
2018-12-19T22:21:42.559Z,82.87
2018-12-19T22:26:47.499Z,82.99
2018-12-19T22:31:52.476Z,82.56
2018-12-19T22:36:57.391Z,82.64
2018-12-19T22:42:02.454Z,82.47
2018-12-19T22:47:07.399Z,82.11
2018-12-19T22:52:12.338Z,81.23
2018-12-19T22:57:17.278Z,81.58
2018-12-19T23:02:26.298Z,81.29
2018-12-19T23:07:31.319Z,81.45
2018-12-19T23:12:36.364Z,81.48
2018-12-19T23:17:41.778Z,82.00
2018-12-19T23:22:46.918Z,81.77
2018-12-19T23:27:51.795Z,81.77
2018-12-19T23:32:56.938Z,82.00
2018-12-19T23:38:01.858Z,81.83
2018-12-19T23:43:06.849Z,81.21
2018-12-19T23:48:11.923Z,81.29
2018-12-19T23:53:16.718Z,81.47
2018-12-19T23:58:21.558Z,81.64
